Time;durP1;ratioP1;P1;durP2;ratioP2;P2;SDS_P1;SDS_P2;PMS_P1;PMS_P2;Temp;Humidity;BMP_temperature;BMP_pressure;BME280_temperature;BME280_humidity;BME280_pressure;Samples;Min_cycle;Max_cycle;Signal;HPM_P1;HPM_P2
2024/01/29 00:03:22;;;;;;;11.47;6.97;;;;;;;-1.26;100.00;102074.94;10563287;27;20043;-79
2024/01/29 00:08:22;;;;;;;11.00;6.67;;;;;;;-1.39;100.00;102076.84;10590602;27;20033;-79
2024/01/29 00:13:23;;;;;;;11.60;7.23;;;;;;;-1.45;100.00;102078.72;10580573;27;20570;-80
2024/01/29 00:18:23;;;;;;;10.50;7.53;;;;;;;-1.49;100.00;102070.66;10605803;27;20075;-80
2024/01/29 00:23:24;;;;;;;14.23;7.17;;;;;;;-1.45;100.00;102069.38;10569218;27;21204;-79
2024/01/29 00:28:24;;;;;;;10.90;6.57;;;;;;;-1.37;100.00;102065.09;10590005;27;20062;-80
2024/01/29 00:33:25;;;;;;;13.87;8.40;;;;;;;-1.33;100.00;102060.50;10537649;27;20097;-79
2024/01/29 00:38:25;;;;;;;13.03;8.67;;;;;;;-1.32;100.00;102053.69;10552668;27;20031;-79
2024/01/29 00:43:26;;;;;;;12.80;9.00;;;;;;;-1.27;100.00;102057.72;10596059;27;20039;-79
2024/01/29 00:48:26;;;;;;;20.87;10.03;;;;;;;-1.24;100.00;102065.75;10607544;27;20119;-79
2024/01/29 00:53:27;;;;;;;17.80;8.87;;;;;;;-1.20;100.00;102067.94;10588498;27;20538;-80
2024/01/29 00:58:28;;;;;;;10.97;6.93;;;;;;;-1.20;100.00;102080.78;10574653;27;20034;-79
2024/01/29 01:03:31;;;;;;;14.27;8.52;;;;;;;-1.22;100.00;102074.56;10580883;27;20041;-78
2024/01/29 01:08:31;;;;;;;14.23;7.50;;;;;;;-1.23;100.00;102072.72;10603609;27;20043;-78
2024/01/29 01:13:32;;;;;;;18.70;8.83;;;;;;;-1.17;100.00;102072.53;10549632;28;20046;-78
2024/01/29 01:18:32;;;;;;;15.53;10.03;;;;;;;-1.08;100.00;102071.00;10515646;28;20043;-79
2024/01/29 01:23:33;;;;;;;15.97;9.00;;;;;;;-0.98;100.00;102070.38;10579833;27;20035;-79
2024/01/29 01:28:33;;;;;;;13.50;9.53;;;;;;;-0.98;100.00;102075.53;10590142;27;20126;-78
2024/01/29 01:33:34;;;;;;;13.77;8.57;;;;;;;-1.02;100.00;102062.16;10576334;27;20474;-79
2024/01/29 01:38:34;;;;;;;11.17;7.60;;;;;;;-1.09;100.00;102070.81;10560869;27;20039;-80
2024/01/29 01:43:35;;;;;;;9.07;7.03;;;;;;;-1.12;100.00;102084.25;10579339;27;20448;-79
2024/01/29 01:48:35;;;;;;;12.23;7.83;;;;;;;-1.15;100.00;102080.41;10569469;27;20051;-78
2024/01/29 01:53:37;;;;;;;14.93;9.17;;;;;;;-1.10;100.00;102084.41;10573076;27;20501;-79
2024/01/29 01:58:40;;;;;;;13.35;9.45;;;;;;;-1.15;100.00;102091.63;10565108;27;20039;-79
2024/01/29 02:03:42;;;;;;;12.35;8.70;;;;;;;-1.08;100.00;102088.06;10564383;27;20070;-79
2024/01/29 02:08:43;;;;;;;12.38;9.73;;;;;;;-0.96;100.00;102091.13;10569684;27;20039;-79
2024/01/29 02:13:43;;;;;;;13.77;8.93;;;;;;;-0.95;100.00;102091.28;10557786;27;20224;-79
2024/01/29 02:18:44;;;;;;;14.87;8.70;;;;;;;-1.03;100.00;102089.50;10593651;27;20506;-79
2024/01/29 02:23:45;;;;;;;12.43;7.53;;;;;;;-1.06;100.00;102087.53;10548236;28;20039;-78
2024/01/29 02:28:45;;;;;;;12.53;8.07;;;;;;;-1.23;100.00;102093.28;10558165;28;20028;-79
2024/01/29 02:33:46;;;;;;;16.43;7.93;;;;;;;-1.33;100.00;102092.97;10578421;28;20356;-79
2024/01/29 02:38:46;;;;;;;11.23;9.20;;;;;;;-1.39;100.00;102090.63;10563639;27;20035;-79
2024/01/29 02:43:47;;;;;;;10.37;6.90;;;;;;;-1.45;100.00;102100.19;10595567;27;20130;-80
2024/01/29 02:48:47;;;;;;;9.60;6.57;;;;;;;-1.52;100.00;102095.09;10594207;27;20088;-79
2024/01/29 02:53:48;;;;;;;10.67;6.70;;;;;;;-1.59;100.00;102088.31;10583142;27;20611;-79
2024/01/29 02:58:48;;;;;;;16.17;9.07;;;;;;;-1.52;100.00;102089.94;10557026;28;20101;-79
2024/01/29 03:03:49;;;;;;;13.67;7.10;;;;;;;-1.58;100.00;102087.56;10574452;27;20122;-79
2024/01/29 03:08:49;;;;;;;14.00;7.17;;;;;;;-1.71;100.00;102079.19;10570737;27;20559;-79
2024/01/29 03:13:50;;;;;;;13.20;8.73;;;;;;;-1.72;100.00;102075.72;10574333;28;20174;-79
2024/01/29 03:18:50;;;;;;;10.57;8.17;;;;;;;-1.61;100.00;102078.59;10576330;27;20550;-79
2024/01/29 03:23:51;;;;;;;24.97;9.73;;;;;;;-1.31;100.00;102070.03;10555343;27;20028;-79
2024/01/29 03:28:51;;;;;;;12.10;8.10;;;;;;;-1.13;100.00;102073.78;10585326;27;20117;-78
2024/01/29 03:33:52;;;;;;;12.80;8.23;;;;;;;-1.16;100.00;102078.56;10576054;27;20031;-79
2024/01/29 03:38:52;;;;;;;10.17;6.23;;;;;;;-1.24;100.00;102073.47;10595035;27;20138;-78
2024/01/29 03:43:53;;;;;;;9.53;7.90;;;;;;;-1.27;100.00;102085.97;10598674;27;20126;-79
2024/01/29 03:48:53;;;;;;;11.13;6.97;;;;;;;-1.42;100.00;102089.34;10572524;27;20119;-79
2024/01/29 03:53:54;;;;;;;15.27;8.27;;;;;;;-1.48;100.00;102097.28;10562309;27;20043;-80
2024/01/29 03:58:54;;;;;;;10.67;7.20;;;;;;;-1.61;100.00;102097.47;10551346;27;20043;-80
2024/01/29 04:03:55;;;;;;;10.10;7.10;;;;;;;-1.73;100.00;102107.25;10550236;27;20126;-79
2024/01/29 04:08:56;;;;;;;20.27;8.45;;;;;;;-1.84;100.00;102108.53;10526965;27;20072;-80
2024/01/29 04:13:56;;;;;;;11.60;6.90;;;;;;;-1.78;100.00;102111.84;10537211;27;20051;-79
2024/01/29 04:18:57;;;;;;;12.73;7.80;;;;;;;-1.72;100.00;102113.28;10587620;27;20110;-79
2024/01/29 04:23:57;;;;;;;16.60;8.23;;;;;;;-1.57;100.00;102115.06;10552143;28;20074;-79
2024/01/29 04:28:58;;;;;;;10.97;7.43;;;;;;;-1.57;100.00;102112.50;10574524;27;20455;-80
2024/01/29 04:33:59;;;;;;;13.43;8.13;;;;;;;-1.53;100.00;102103.53;10567361;27;20126;-79
2024/01/29 04:38:59;;;;;;;14.60;8.70;;;;;;;-1.52;100.00;102097.66;10535072;28;20077;-80
2024/01/29 04:44:00;;;;;;;11.63;7.37;;;;;;;-1.51;100.00;102102.94;10554214;28;20043;-79
2024/01/29 04:49:00;;;;;;;8.83;5.53;;;;;;;-1.52;100.00;102116.53;10561456;27;20049;-80
2024/01/29 04:54:01;;;;;;;11.40;8.90;;;;;;;-1.57;100.00;102101.34;10567722;27;20066;-78
2024/01/29 04:59:01;;;;;;;18.20;8.57;;;;;;;-1.58;100.00;102117.47;10569721;28;20067;-79
2024/01/29 05:04:02;;;;;;;12.20;7.00;;;;;;;-1.60;100.00;102117.28;10576856;27;20046;-78
2024/01/29 05:09:02;;;;;;;10.90;7.13;;;;;;;-1.65;100.00;102114.19;10538363;28;20475;-79
2024/01/29 05:14:03;;;;;;;11.30;8.97;;;;;;;-1.69;100.00;102118.78;10549820;27;20031;-78
2024/01/29 05:19:03;;;;;;;16.40;8.63;;;;;;;-1.56;100.00;102121.16;10549219;28;20062;-79
2024/01/29 05:24:04;;;;;;;10.50;8.10;;;;;;;-1.38;100.00;102123.28;10572868;27;20108;-79
2024/01/29 05:29:05;;;;;;;12.93;7.17;;;;;;;-1.34;100.00;102127.09;10610306;27;20043;-78
2024/01/29 05:34:05;;;;;;;14.13;8.10;;;;;;;-1.32;100.00;102141.03;10565228;27;20118;-79
2024/01/29 05:39:06;;;;;;;11.47;8.73;;;;;;;-1.37;100.00;102126.75;10559685;27;20046;-79
2024/01/29 05:44:06;;;;;;;14.27;9.13;;;;;;;-1.30;100.00;102130.97;10548880;28;20125;-79
2024/01/29 05:49:07;;;;;;;11.47;7.00;;;;;;;-1.29;100.00;102143.06;10534758;28;20356;-79
2024/01/29 05:54:07;;;;;;;11.77;6.70;;;;;;;-1.45;100.00;102135.22;10522578;28;20097;-79
2024/01/29 05:59:08;;;;;;;6.07;5.07;;;;;;;-1.52;100.00;102142.19;10488852;28;20051;-79
2024/01/29 06:04:08;;;;;;;17.13;8.67;;;;;;;-1.56;100.00;102149.38;10518985;28;20058;-80
2024/01/29 06:09:09;;;;;;;9.83;7.73;;;;;;;-1.57;100.00;102151.03;10506515;28;20119;-79
2024/01/29 06:14:10;;;;;;;16.93;9.63;;;;;;;-1.58;100.00;102140.59;10487226;28;20533;-81
2024/01/29 06:19:15;;;;;;;8.87;6.47;;;;;;;-1.53;100.00;102140.38;10504751;28;20165;-80
2024/01/29 06:24:15;;;;;;;14.60;9.02;;;;;;;-1.54;100.00;102145.34;10515825;28;20549;-80
2024/01/29 06:29:16;;;;;;;13.17;8.93;;;;;;;-1.60;100.00;102153.22;10505531;28;20086;-80
2024/01/29 06:34:16;;;;;;;8.83;6.37;;;;;;;-1.63;100.00;102165.72;10517055;28;20429;-80
2024/01/29 06:39:17;;;;;;;10.63;7.77;;;;;;;-1.64;100.00;102162.25;10489719;28;20115;-79
2024/01/29 06:44:17;;;;;;;10.33;6.80;;;;;;;-1.58;100.00;102173.97;10505389;28;20123;-80
2024/01/29 06:49:27;;;;;;;12.37;6.37;;;;;;;-1.39;100.00;102169.31;10540517;28;20043;-81
2024/01/29 06:54:27;;;;;;;12.80;8.40;;;;;;;-1.43;100.00;102168.06;10518433;28;20110;-81
2024/01/29 06:59:28;;;;;;;14.73;8.40;;;;;;;-1.50;100.00;102174.13;10550236;28;20553;-81
2024/01/29 07:04:28;;;;;;;13.70;8.13;;;;;;;-1.55;100.00;102175.22;10571284;28;20122;-80
2024/01/29 07:09:31;;;;;;;18.80;9.70;;;;;;;-1.52;100.00;102174.69;10581631;28;20118;-80
2024/01/29 07:14:31;;;;;;;10.82;8.30;;;;;;;-1.43;100.00;102177.41;10578793;28;20062;-81
2024/01/29 07:19:33;;;;;;;14.77;7.77;;;;;;;-1.41;100.00;102166.59;10580009;28;20044;-80
2024/01/29 07:24:34;;;;;;;10.68;7.07;;;;;;;-1.46;100.00;102177.03;10567663;27;20070;-80
2024/01/29 07:29:35;;;;;;;55.13;33.63;;;;;;;-1.36;100.00;102187.66;10574885;27;20054;-81
2024/01/29 07:34:36;;;;;;;14.97;8.77;;;;;;;-1.28;100.00;102196.28;10538368;28;20441;-81
2024/01/29 07:39:36;;;;;;;10.25;7.90;;;;;;;-1.20;100.00;102198.06;10563591;27;20063;-81
2024/01/29 07:44:38;;;;;;;12.70;8.10;;;;;;;-1.05;100.00;102206.63;10571788;27;20189;-81
2024/01/29 07:49:39;;;;;;;15.05;7.38;;;;;;;-0.91;100.00;102206.56;10544355;27;20114;-81
2024/01/29 07:54:39;;;;;;;9.53;7.03;;;;;;;-0.77;100.00;102205.59;10554529;28;20044;-81
2024/01/29 07:59:40;;;;;;;9.67;7.57;;;;;;;-0.51;100.00;102202.53;10572619;27;20114;-80
2024/01/29 08:04:40;;;;;;;11.33;6.93;;;;;;;-0.40;100.00;102196.00;10571735;27;20066;-80
2024/01/29 08:09:41;;;;;;;10.80;8.87;;;;;;;-0.23;100.00;102208.22;10571844;27;20493;-81
2024/01/29 08:14:41;;;;;;;10.47;7.13;;;;;;;-0.04;100.00;102213.75;10612158;27;20117;-80
2024/01/29 08:19:42;;;;;;;10.47;6.27;;;;;;;0.22;100.00;102225.13;10579914;27;20076;-81
2024/01/29 08:24:42;;;;;;;10.57;7.77;;;;;;;0.44;100.00;102230.97;10574143;27;20055;-81
2024/01/29 08:29:43;;;;;;;7.07;4.77;;;;;;;0.68;100.00;102224.13;10597677;27;20500;-80
2024/01/29 08:34:45;;;;;;;10.60;6.13;;;;;;;0.90;100.00;102224.81;10534579;28;20149;-80
2024/01/29 08:39:46;;;;;;;15.20;7.43;;;;;;;1.10;100.00;102220.88;10589955;27;20035;-81
2024/01/29 08:44:46;;;;;;;19.13;7.23;;;;;;;1.34;100.00;102229.44;10612783;27;20119;-78
2024/01/29 08:49:47;;;;;;;5.60;3.63;;;;;;;1.63;100.00;102224.75;10611175;27;20485;-78
2024/01/29 08:54:48;;;;;;;11.23;5.15;;;;;;;1.94;100.00;102209.91;10576376;27;20121;-79
2024/01/29 08:59:49;;;;;;;12.73;6.87;;;;;;;2.22;100.00;102206.69;10610142;27;20490;-78
2024/01/29 09:04:49;;;;;;;10.93;6.35;;;;;;;2.49;100.00;102198.25;10568404;28;20122;-78
2024/01/29 09:09:49;;;;;;;7.00;5.15;;;;;;;2.73;100.00;102193.72;10552525;27;20042;-80
2024/01/29 09:14:50;;;;;;;8.88;6.20;;;;;;;3.06;100.00;102177.16;10541482;28;20062;-80
2024/01/29 09:19:51;;;;;;;9.82;6.55;;;;;;;3.34;100.00;102178.22;10559947;27;20074;-79
2024/01/29 09:24:52;;;;;;;6.83;5.47;;;;;;;3.71;100.00;102164.44;10580050;27;20087;-78
2024/01/29 09:29:52;;;;;;;12.07;5.40;;;;;;;3.97;100.00;102154.88;10573737;27;20842;-78
2024/01/29 09:34:53;;;;;;;12.00;6.18;;;;;;;4.24;100.00;102155.66;10565665;27;20035;-78
2024/01/29 09:39:54;;;;;;;10.05;5.60;;;;;;;4.57;100.00;102165.53;10549398;27;20110;-80
2024/01/29 09:44:54;;;;;;;6.95;4.85;;;;;;;4.87;100.00;102157.06;10565091;27;20476;-77
2024/01/29 09:49:55;;;;;;;11.98;5.88;;;;;;;5.23;100.00;102163.75;10544138;27;20083;-77
2024/01/29 09:54:55;;;;;;;10.05;5.95;;;;;;;5.68;100.00;102185.00;10524159;28;20436;-77
2024/01/29 09:59:56;;;;;;;8.80;5.32;;;;;;;6.09;100.00;102203.34;10549860;28;20057;-77
2024/01/29 10:04:56;;;;;;;7.13;5.35;;;;;;;6.47;100.00;102212.66;10542735;28;20043;-77
2024/01/29 10:09:57;;;;;;;6.55;5.03;;;;;;;6.81;100.00;102230.22;10546384;28;20157;-78
2024/01/29 10:14:57;;;;;;;8.80;5.43;;;;;;;7.23;100.00;102245.03;10545520;28;20127;-77
2024/01/29 10:19:58;;;;;;;7.95;5.47;;;;;;;7.68;100.00;102253.00;10550867;28;20126;-78
2024/01/29 10:25:03;;;;;;;11.18;5.47;;;;;;;8.27;100.00;102253.41;10545120;28;20130;-77
2024/01/29 10:30:04;;;;;;;9.25;5.32;;;;;;;9.18;100.00;102271.66;10553189;28;20032;-77
2024/01/29 10:35:05;;;;;;;7.70;5.03;;;;;;;10.31;100.00;102289.47;10526201;28;20074;-78
2024/01/29 10:40:06;;;;;;;8.70;4.97;;;;;;;12.03;100.00;102330.88;10557072;28;20410;-78
2024/01/29 10:45:07;;;;;;;8.13;4.70;;;;;;;13.65;100.00;102386.44;10529151;28;20130;-79
2024/01/29 10:50:08;;;;;;;11.35;5.28;;;;;;;14.42;100.00;102410.13;10523800;28;20043;-77
2024/01/29 10:55:10;;;;;;;9.48;5.95;;;;;;;14.54;100.00;102436.22;10517974;28;20390;-78
2024/01/29 11:00:11;;;;;;;6.80;5.38;;;;;;;13.86;100.00;102422.72;10508573;28;20143;-78
2024/01/29 11:05:12;;;;;;;7.28;5.00;;;;;;;14.35;100.00;102423.75;10507713;28;20111;-78
2024/01/29 11:10:23;;;;;;;7.47;4.35;;;;;;;13.73;100.00;102422.81;10512394;28;20529;-78
2024/01/29 11:15:23;;;;;;;5.57;4.80;;;;;;;13.35;100.00;102417.00;10501350;28;20411;-79
2024/01/29 11:20:25;;;;;;;8.10;4.07;;;;;;;13.04;100.00;102416.03;10500241;28;20098;-79
2024/01/29 11:25:27;;;;;;;7.15;5.28;;;;;;;12.81;100.00;102393.56;10491271;28;20094;-82
2024/01/29 11:30:28;;;;;;;9.35;5.30;;;;;;;12.68;100.00;102388.34;10514109;28;20039;-78
2024/01/29 11:35:30;;;;;;;39.50;15.73;;;;;;;12.88;100.00;102381.72;10513935;28;20044;-78
2024/01/29 11:40:41;;;;;;;7.40;5.93;;;;;;;12.74;100.00;102379.16;10546974;28;20529;-79
2024/01/29 11:45:43;;;;;;;10.55;5.57;;;;;;;12.03;100.00;102372.88;10504153;28;20121;-80
2024/01/29 11:50:51;;;;;;;8.52;5.90;;;;;;;11.66;100.00;102359.00;10514462;28;20043;-83
2024/01/29 11:55:53;;;;;;;14.07;4.95;;;;;;;11.35;100.00;102360.44;10496845;28;20040;-78
2024/01/29 12:00:53;;;;;;;7.88;4.97;;;;;;;11.73;100.00;102348.13;10490041;28;20074;-78
2024/01/29 12:05:54;;;;;;;9.35;5.22;;;;;;;12.26;100.00;102354.19;10537047;28;20447;-79
2024/01/29 12:10:58;;;;;;;7.50;5.35;;;;;;;12.81;100.00;102358.50;10526829;28;20036;-79
2024/01/29 12:16:00;;;;;;;6.70;4.72;;;;;;;13.65;100.00;102356.56;10497787;28;20040;-79
2024/01/29 12:21:00;;;;;;;10.13;5.03;;;;;;;13.60;100.00;102358.03;10489626;28;20518;-78
2024/01/29 12:26:01;;;;;;;8.73;5.38;;;;;;;13.88;100.00;102352.66;10508868;28;20042;-80
2024/01/29 12:31:06;;;;;;;8.32;5.10;;;;;;;13.53;100.00;102353.22;10509057;28;20056;-79
2024/01/29 12:36:14;;;;;;;6.97;5.15;;;;;;;13.14;100.00;102343.91;10489944;28;20427;-79
2024/01/29 12:41:14;;;;;;;14.75;7.38;;;;;;;13.09;100.00;102353.22;10498623;28;20040;-80
2024/01/29 12:46:15;;;;;;;8.90;5.97;;;;;;;12.59;100.00;102339.66;10490149;28;20131;-79
2024/01/29 12:51:15;;;;;;;8.27;5.72;;;;;;;12.27;100.00;102327.16;10525323;28;20101;-80
2024/01/29 12:56:16;;;;;;;10.63;6.00;;;;;;;12.23;100.00;102323.41;10515779;28;20078;-80
2024/01/29 13:01:16;;;;;;;13.02;6.55;;;;;;;12.48;100.00;102312.75;10525941;28;20115;-80
2024/01/29 13:06:17;;;;;;;11.65;4.70;;;;;;;12.67;100.00;102331.38;10526110;28;20040;-80
2024/01/29 13:11:17;;;;;;;8.90;6.22;;;;;;;12.98;100.00;102323.69;10548798;28;20185;-78
2024/01/29 13:16:18;;;;;;;7.68;4.70;;;;;;;13.07;100.00;102324.25;10547524;28;20064;-79
2024/01/29 13:21:21;;;;;;;11.27;6.63;;;;;;;12.99;100.00;102321.94;10522607;28;20664;-79
2024/01/29 13:26:21;;;;;;;8.93;5.75;;;;;;;13.38;100.00;102313.75;10525184;28;20066;-78
2024/01/29 13:31:22;;;;;;;11.82;7.05;;;;;;;13.89;100.00;102312.38;10522898;28;20071;-79
2024/01/29 13:36:22;;;;;;;7.75;5.90;;;;;;;14.31;100.00;102321.69;10507774;28;20494;-81
2024/01/29 13:41:23;;;;;;;10.43;6.35;;;;;;;14.52;100.00;102332.50;10524060;28;20430;-79
2024/01/29 13:46:23;;;;;;;8.75;5.82;;;;;;;14.21;100.00;102315.00;10543952;28;20119;-79
2024/01/29 13:51:24;;;;;;;6.25;4.88;;;;;;;14.49;100.00;102321.78;10531585;28;20562;-79
2024/01/29 13:56:24;;;;;;;10.35;6.82;;;;;;;14.94;100.00;102322.50;10552683;28;20044;-80
2024/01/29 14:01:24;;;;;;;17.33;6.28;;;;;;;14.92;100.00;102326.78;10540054;28;20456;-79
2024/01/29 14:06:25;;;;;;;11.18;5.22;;;;;;;13.86;100.00;102314.81;10525082;28;20120;-80
2024/01/29 14:11:25;;;;;;;10.65;6.47;;;;;;;13.30;100.00;102305.38;10520122;28;20119;-80
2024/01/29 14:16:26;;;;;;;12.10;6.13;;;;;;;13.24;100.00;102289.25;10558648;27;20105;-80
2024/01/29 14:21:26;;;;;;;11.38;6.45;;;;;;;12.83;100.00;102296.47;10548547;28;20051;-80
2024/01/29 14:26:27;;;;;;;9.82;5.50;;;;;;;12.66;100.00;102292.78;10527158;28;20056;-79
2024/01/29 14:31:27;;;;;;;13.80;5.50;;;;;;;12.66;100.00;102285.81;10487646;28;20115;-78
2024/01/29 14:36:28;;;;;;;7.13;5.43;;;;;;;12.63;100.00;102294.41;10548594;28;20502;-79
2024/01/29 14:41:28;;;;;;;8.65;5.43;;;;;;;12.57;100.00;102290.50;10554190;28;20122;-78
2024/01/29 14:46:29;;;;;;;10.00;5.07;;;;;;;12.37;100.00;102290.16;10532704;28;20134;-79
2024/01/29 14:51:31;;;;;;;8.00;5.63;;;;;;;11.93;100.00;102278.59;10536583;28;20127;-78
2024/01/29 14:56:31;;;;;;;8.80;5.90;;;;;;;11.56;100.00;102284.03;10551527;28;20046;-79
2024/01/29 15:01:34;;;;;;;8.73;5.32;;;;;;;11.23;100.00;102267.88;10546325;28;20044;-80
2024/01/29 15:06:34;;;;;;;8.00;5.53;;;;;;;10.88;100.00;102264.69;10516126;28;20093;-79
2024/01/29 15:11:35;;;;;;;10.35;5.00;;;;;;;10.51;100.00;102262.13;10517352;28;20139;-78
2024/01/29 15:16:35;;;;;;;7.65;5.28;;;;;;;10.24;100.00;102252.38;10566716;27;20036;-78
2024/01/29 15:21:36;;;;;;;7.50;5.25;;;;;;;10.02;100.00;102241.19;10547116;28;20043;-79
2024/01/29 15:26:36;;;;;;;12.65;5.07;;;;;;;9.76;100.00;102243.75;10532495;28;20123;-78
2024/01/29 15:31:36;;;;;;;8.13;5.75;;;;;;;9.46;100.00;102229.31;10534137;28;20127;-79
2024/01/29 15:36:37;;;;;;;8.98;4.85;;;;;;;9.14;100.00;102212.16;10561569;27;20452;-77
2024/01/29 15:41:38;;;;;;;8.70;5.30;;;;;;;8.81;100.00;102218.44;10544441;28;20093;-79
2024/01/29 15:46:44;;;;;;;8.45;5.00;;;;;;;8.44;100.00;102210.34;10549892;28;20556;-79
2024/01/29 15:51:45;;;;;;;9.98;5.43;;;;;;;8.07;100.00;102203.19;10525055;28;20102;-78
2024/01/29 15:56:45;;;;;;;8.23;4.80;;;;;;;7.79;100.00;102194.84;10550933;28;20105;-78
2024/01/29 16:01:56;;;;;;;8.32;4.55;;;;;;;7.53;100.00;102195.34;10552668;28;20118;-78
2024/01/29 16:06:57;;;;;;;6.32;4.35;;;;;;;7.21;100.00;102178.91;10523339;28;20035;-80
2024/01/29 16:11:57;;;;;;;10.57;5.57;;;;;;;6.94;100.00;102169.72;10533833;28;20118;-80
2024/01/29 16:16:58;;;;;;;8.63;5.68;;;;;;;6.63;100.00;102172.34;10513432;28;20121;-81
2024/01/29 16:21:58;;;;;;;9.07;6.25;;;;;;;6.29;100.00;102176.50;10547554;28;20064;-81
2024/01/29 16:26:59;;;;;;;9.90;5.88;;;;;;;6.02;100.00;102186.34;10551336;28;20123;-81
2024/01/29 16:31:59;;;;;;;9.95;6.43;;;;;;;5.86;100.00;102185.72;10529514;28;20074;-80
2024/01/29 16:37:00;;;;;;;10.80;5.80;;;;;;;5.82;100.00;102207.03;10527520;28;20412;-80
2024/01/29 16:42:00;;;;;;;9.25;6.25;;;;;;;5.90;100.00;102218.06;10508374;28;20047;-80
2024/01/29 16:47:01;;;;;;;16.27;7.50;;;;;;;5.94;100.00;102214.97;10518589;28;20118;-80
2024/01/29 16:52:01;;;;;;;12.60;6.65;;;;;;;5.85;100.00;102215.97;10521534;28;20104;-80
2024/01/29 16:57:04;;;;;;;14.25;7.65;;;;;;;5.73;100.00;102214.91;10513081;28;20376;-79
2024/01/29 17:02:04;;;;;;;8.75;6.35;;;;;;;5.70;100.00;102223.34;10510375;28;20130;-79
2024/01/29 17:07:05;;;;;;;11.75;8.43;;;;;;;5.58;100.00;102224.84;10506506;28;20446;-80
2024/01/29 17:12:05;;;;;;;12.75;8.25;;;;;;;5.41;100.00;102216.44;10519158;28;20121;-81
2024/01/29 17:17:07;;;;;;;10.18;6.97;;;;;;;5.27;100.00;102222.97;10506943;28;20043;-81
2024/01/29 17:22:07;;;;;;;12.90;8.15;;;;;;;5.10;100.00;102230.91;10502891;28;20040;-78
2024/01/29 17:27:08;;;;;;;12.77;8.05;;;;;;;5.00;100.00;102234.34;10505767;28;20122;-81
2024/01/29 17:32:08;;;;;;;15.07;8.50;;;;;;;4.73;100.00;102238.81;10488101;28;20115;-81
2024/01/29 17:37:09;;;;;;;14.15;7.95;;;;;;;4.40;100.00;102242.66;10529616;28;20128;-83
2024/01/29 17:42:10;;;;;;;10.40;6.80;;;;;;;4.30;100.00;102246.03;10502218;28;20400;-83
2024/01/29 17:47:11;;;;;;;13.23;7.82;;;;;;;4.32;100.00;102248.78;10526199;28;20068;-83
2024/01/29 17:52:12;;;;;;;10.18;7.05;;;;;;;4.22;100.00;102244.38;10513661;28;20054;-83
2024/01/29 17:57:12;;;;;;;9.52;6.85;;;;;;;4.19;100.00;102259.66;10515809;28;20105;-83
2024/01/29 18:02:13;;;;;;;19.17;8.57;;;;;;;4.20;100.00;102258.88;10515915;28;20040;-83
2024/01/29 18:07:13;;;;;;;16.38;9.27;;;;;;;4.24;100.00;102254.16;10506134;28;20044;-82
2024/01/29 18:12:14;;;;;;;259.52;183.52;;;;;;;4.47;100.00;102259.69;10515106;28;20060;-82
2024/01/29 18:17:14;;;;;;;40.50;24.65;;;;;;;4.49;100.00;102261.66;10524532;28;20040;-83
2024/01/29 18:22:15;;;;;;;17.77;11.95;;;;;;;4.63;100.00;102262.06;10501956;28;20086;-82
2024/01/29 18:27:15;;;;;;;18.73;12.05;;;;;;;4.74;100.00;102276.03;10537124;28;20495;-82
2024/01/29 18:32:16;;;;;;;18.58;11.20;;;;;;;4.99;100.00;102264.56;10521400;28;20048;-82
2024/01/29 18:37:16;;;;;;;16.48;11.02;;;;;;;5.18;100.00;102276.66;10531812;28;20395;-81
2024/01/29 18:42:17;;;;;;;19.25;12.05;;;;;;;5.16;100.00;102280.78;10490953;28;20177;-81
2024/01/29 18:47:17;;;;;;;14.38;10.10;;;;;;;4.99;100.00;102272.34;10504945;28;20036;-83
2024/01/29 18:52:18;;;;;;;14.38;10.25;;;;;;;4.83;100.00;102283.00;10492611;28;20502;-82
2024/01/29 18:57:18;;;;;;;16.50;10.13;;;;;;;4.71;100.00;102289.63;10488446;28;20043;-82
2024/01/29 19:02:19;;;;;;;22.15;13.05;;;;;;;4.59;100.00;102276.41;10504530;28;20064;-83
2024/01/29 19:07:19;;;;;;;23.45;13.27;;;;;;;4.60;100.00;102272.13;10501794;28;20491;-82
2024/01/29 19:12:20;;;;;;;14.57;11.73;;;;;;;4.59;100.00;102275.50;10486610;28;20131;-82
2024/01/29 19:17:21;;;;;;;22.00;13.45;;;;;;;4.59;100.00;102271.22;10488048;28;20478;-82
2024/01/29 19:22:21;;;;;;;20.38;14.07;;;;;;;4.64;100.00;102269.06;10506682;28;20135;-82
2024/01/29 19:27:22;;;;;;;23.88;15.60;;;;;;;4.62;100.00;102275.78;10493647;28;20229;-82
2024/01/29 19:32:22;;;;;;;19.10;14.27;;;;;;;4.61;100.00;102272.28;10528401;28;20131;-81
2024/01/29 19:37:25;;;;;;;23.77;15.68;;;;;;;4.63;100.00;102277.63;10508683;28;20462;-81
2024/01/29 19:42:25;;;;;;;20.83;14.77;;;;;;;4.52;100.00;102269.75;10528627;28;20036;-81
2024/01/29 19:47:26;;;;;;;20.63;14.10;;;;;;;4.43;100.00;102261.09;10511972;28;20119;-81
2024/01/29 19:52:26;;;;;;;24.83;16.55;;;;;;;4.38;100.00;102265.81;10553179;28;20127;-81
2024/01/29 19:57:27;;;;;;;26.88;15.52;;;;;;;4.36;100.00;102253.50;10533843;28;20035;-82
2024/01/29 20:02:28;;;;;;;20.73;15.80;;;;;;;4.28;100.00;102262.22;10553922;27;20368;-82
2024/01/29 20:07:28;;;;;;;27.33;17.98;;;;;;;4.13;100.00;102262.56;10567820;28;20043;-81
2024/01/29 20:12:30;;;;;;;24.45;16.55;;;;;;;4.06;100.00;102271.44;10551756;27;20040;-82
2024/01/29 20:17:31;;;;;;;26.85;17.67;;;;;;;4.01;100.00;102264.00;10534051;28;20035;-82
2024/01/29 20:22:31;;;;;;;25.17;19.25;;;;;;;3.86;100.00;102266.91;10567911;27;20134;-82
2024/01/29 20:27:32;;;;;;;22.80;14.52;;;;;;;3.79;100.00;102270.56;10535981;28;20048;-82
2024/01/29 20:32:32;;;;;;;24.02;15.73;;;;;;;3.67;100.00;102259.94;10548322;27;20039;-82
2024/01/29 20:37:33;;;;;;;23.52;17.30;;;;;;;3.66;100.00;102255.53;10566470;28;20153;-82
2024/01/29 20:42:33;;;;;;;24.73;17.23;;;;;;;3.60;100.00;102254.00;10555226;27;20043;-81
2024/01/29 20:47:34;;;;;;;24.45;15.15;;;;;;;3.50;100.00;102265.13;10553117;28;20040;-82
2024/01/29 20:52:34;;;;;;;26.83;15.13;;;;;;;3.39;100.00;102261.47;10581377;27;20055;-82
2024/01/29 20:57:35;;;;;;;22.48;17.70;;;;;;;3.44;100.00;102264.53;10533162;27;20043;-82
2024/01/29 21:02:35;;;;;;;26.92;19.23;;;;;;;3.42;100.00;102263.47;10568373;28;20386;-81
2024/01/29 21:07:36;;;;;;;24.33;17.17;;;;;;;3.31;100.00;102262.38;10515096;27;20050;-81
2024/01/29 21:12:40;;;;;;;24.25;18.05;;;;;;;3.32;100.00;102254.78;10548074;28;20063;-81
2024/01/29 21:17:41;;;;;;;22.67;18.88;;;;;;;3.30;100.00;102263.16;10583250;27;20440;-81
2024/01/29 21:22:41;;;;;;;24.23;17.83;;;;;;;3.19;100.00;102255.22;10569081;27;20126;-81
2024/01/29 21:27:42;;;;;;;29.55;20.58;;;;;;;3.21;100.00;102255.41;10567452;27;20118;-81
2024/01/29 21:32:42;;;;;;;27.25;20.52;;;;;;;3.21;100.00;102250.22;10548429;28;20044;-82
2024/01/29 21:37:43;;;;;;;28.88;21.77;;;;;;;3.20;100.00;102248.41;10550143;27;20478;-81
2024/01/29 21:42:43;;;;;;;23.52;17.83;;;;;;;3.13;100.00;102245.97;10570913;27;20036;-81
2024/01/29 21:47:44;;;;;;;23.42;18.75;;;;;;;3.11;100.00;102240.63;10556442;28;20399;-81
2024/01/29 21:52:44;;;;;;;24.10;17.90;;;;;;;3.05;100.00;102253.88;10534050;28;20039;-81
2024/01/29 21:57:45;;;;;;;28.30;21.05;;;;;;;2.99;100.00;102247.16;10563603;28;20046;-82
2024/01/29 22:02:45;;;;;;;35.58;23.50;;;;;;;2.95;100.00;102261.47;10553381;28;20489;-81
2024/01/29 22:07:46;;;;;;;25.92;22.60;;;;;;;2.90;100.00;102258.41;10547692;28;20031;-81
2024/01/29 22:12:47;;;;;;;22.65;17.63;;;;;;;2.85;100.00;102261.28;10547697;28;20036;-81
2024/01/29 22:17:47;;;;;;;26.95;20.95;;;;;;;2.83;100.00;102265.41;10563000;28;20075;-82
2024/01/29 22:22:48;;;;;;;31.60;21.60;;;;;;;2.80;100.00;102260.81;10558112;28;20560;-82
2024/01/29 22:27:49;;;;;;;26.73;20.57;;;;;;;2.73;100.00;102269.63;10530601;28;20035;-81
2024/01/29 22:32:50;;;;;;;29.63;22.35;;;;;;;2.76;100.00;102266.44;10562830;28;20800;-81
2024/01/29 22:37:50;;;;;;;29.77;21.83;;;;;;;2.72;100.00;102267.81;10541018;28;20131;-82